Bodfish, CA (93205)

2:02 AM PDT on September 29, 2016 (GMT -0700)
Lake Isabella | | Change Station

Elev 3258 ft 35.60 °N, 118.44 °W | Updated 10 seconds ago

Clear
Clear
62.8 °F
Feels Like 62.8 °F
N
0.0
Wind Variable Wind from ENE
Gusts 0.0 mph

Today
High -- | Low -- °F
--% Chance of Precip.
Yesterday
High -- | Low -- °F
Precip. -- in
Pressure 30.16 in
Visibility 10.0 miles
Clouds Clear
Dew Point 46 °F
Humidity 54%
Rainfall 0.00 in
Snow Depth Not available.
6:47 AM 6:39 PM
Waning Crescent, 3% visible
METAR KTSP 290855Z AUTO 13005KT 10SM CLR 12/06 A3016 RMK AO2
Pressure 30.16 in
Visibility 10.0 miles
Clouds Clear
Dew Point 46 °F
Humidity 54%
Rainfall 0.00 in
Snow Depth Not available.
6:47 AM 6:39 PM
Waning Crescent, 3% visible
METAR KTSP 290855Z AUTO 13005KT 10SM CLR 12/06 A3016 RMK AO2

10-Day Weather Forecast

Almanac

Astronomy

Sep. 29, 2016 Rise Set
Actual Time
Civil Twilight
Nautical Twilight
Astronomical Twilight
Moon
Length of Visible Light
Length of Day
Tomorrow will be .
, % of the Moon is Illuminated

Today's Extremes

State Highs State Lows

Community

WunderPhotos

Upload Photos

1,942,446 photos uploaded!

WunderBlog® & News

Nearby

Air Quality

  Air Quality AQ Index Pollutant
Not available.

Snow Depth

Station Depth Elevation

Earthquake Activity

City Distance Mag. Time & Date
Minimum magnitude displayed is 2.5.

Coastal Water Temperatures

Place Temperature

Stations

Nearby Weather Stations

Station Location Temp. Windchill Dew Point Humidity Wind Precip. Elev Updated Type
                   

Watches & Warnings

There are currently no watches in effect.